Terminal Aerodrome Forecast
Issued by NWS

Home | Current Version | Previous Version | Text Only | Print | Product List | Glossary On
Versions: 1 2 3 4 5 6 7 8 9 10 11 12 13 14
000
FTUS45 KABQ 042346
TAFTCC
TAF
KTCC 042346Z 0500/0524 24012G20KT P6SM SCT080 BKN120
     FM050300 25007KT P6SM BKN100
     FM051500 21012KT P6SM SCT100
     FM052000 21014G20KT P6SM SCT070=

USA.gov is the U.S. government's official web portal to all federal, state and local government web resources and services.